Terminal Aerodrome Forecast
Issued by NWS

Home | Current Version | Previous Version | Text Only | Print | Product List | Glossary Off
Versions: 1 2 3 4 5 6 7 8 9 10 11 12 13 14 15 16 17

752
FTUS43 KTOP 241130
TAFFOE
TAF
KFOE 241130Z 2412/2512 23007KT P6SM BKN150
     FM242200 04007KT P6SM VCTS SCT060CB BKN150
     FM250700 03005KT P6SM BKN200=

USA.gov is the U.S. government's official web portal to all federal, state and local government web resources and services.